createdAt,value
2023-03-19T00:00:49.448Z,3.80
2023-03-19T00:03:16.865Z,2.90
2023-03-19T00:05:54.032Z,3.80
2023-03-19T00:08:22.959Z,5.80
2023-03-19T00:10:51.052Z,4.10
2023-03-19T00:13:19.062Z,3.70
2023-03-19T00:15:47.312Z,4.00
2023-03-19T00:18:14.985Z,4.80
2023-03-19T00:20:43.577Z,4.40
2023-03-19T00:23:11.099Z,3.40
2023-03-19T00:25:38.566Z,4.90
2023-03-19T00:28:05.968Z,3.40
2023-03-19T00:30:34.016Z,6.00
2023-03-19T00:33:02.314Z,6.30
2023-03-19T00:35:30.080Z,3.70
2023-03-19T00:37:57.784Z,4.40
2023-03-19T00:40:25.295Z,4.90
2023-03-19T00:42:52.745Z,5.20
2023-03-19T00:45:20.391Z,6.20
2023-03-19T00:47:47.748Z,5.70
2023-03-19T00:50:15.772Z,4.40
2023-03-19T00:52:43.126Z,4.50
2023-03-19T00:55:11.014Z,4.70
2023-03-19T00:57:38.423Z,4.20
2023-03-19T01:00:07.035Z,3.90
2023-03-19T01:02:34.399Z,4.70
2023-03-19T01:05:01.870Z,3.80
2023-03-19T01:07:29.213Z,4.90
2023-03-19T01:09:56.638Z,4.50
2023-03-19T01:12:24.085Z,5.70
2023-03-19T01:14:51.521Z,5.10
2023-03-19T01:17:18.861Z,4.20
2023-03-19T01:19:46.644Z,5.70
2023-03-19T01:22:16.246Z,4.10
2023-03-19T01:24:44.081Z,4.20
2023-03-19T01:27:11.890Z,3.60
2023-03-19T01:29:40.280Z,4.40
2023-03-19T01:32:07.990Z,6.40
2023-03-19T01:34:35.607Z,3.90
2023-03-19T01:37:02.979Z,3.80
2023-03-19T01:39:30.464Z,4.90
2023-03-19T01:42:02.315Z,4.30
2023-03-19T01:44:34.501Z,3.20
2023-03-19T01:47:07.433Z,3.80
2023-03-19T01:49:34.849Z,5.70
2023-03-19T01:52:05.042Z,5.00
2023-03-19T01:54:33.504Z,6.10
2023-03-19T01:57:07.758Z,4.20
2023-03-19T01:59:39.569Z,5.40
2023-03-19T02:02:19.444Z,7.70
2023-03-19T02:04:49.374Z,3.00
2023-03-19T02:07:17.410Z,3.80
2023-03-19T02:09:45.996Z,3.20
2023-03-19T02:12:13.884Z,4.00
2023-03-19T02:14:41.234Z,4.00
2023-03-19T02:17:08.633Z,5.20
2023-03-19T02:19:48.371Z,6.90
2023-03-19T02:22:21.830Z,4.50
2023-03-19T02:25:03.048Z,6.00
2023-03-19T02:27:31.396Z,4.70
2023-03-19T02:29:58.753Z,5.40
2023-03-19T02:32:27.022Z,5.30
2023-03-19T02:34:54.375Z,3.90
2023-03-19T02:37:33.506Z,5.10
2023-03-19T02:40:09.743Z,7.10
2023-03-19T02:42:37.774Z,5.80
2023-03-19T02:45:06.048Z,4.80
2023-03-19T02:47:33.387Z,9.30
2023-03-19T02:50:01.002Z,5.20
2023-03-19T02:52:28.339Z,4.40
2023-03-19T02:54:55.737Z,6.80
2023-03-19T02:57:23.076Z,4.90
2023-03-19T02:59:50.481Z,5.70
2023-03-19T03:02:18.023Z,4.90
2023-03-19T03:04:45.736Z,6.70
2023-03-19T03:07:13.148Z,4.30
2023-03-19T03:09:40.695Z,4.00
2023-03-19T03:12:08.840Z,5.20
2023-03-19T03:14:36.241Z,6.40
2023-03-19T03:17:03.864Z,5.90
2023-03-19T03:19:31.516Z,4.30
2023-03-19T03:21:58.953Z,4.20
2023-03-19T03:24:26.703Z,4.40
2023-03-19T03:26:54.089Z,7.30
2023-03-19T03:29:21.494Z,5.60
2023-03-19T03:31:48.938Z,5.40
2023-03-19T03:34:16.377Z,4.00
2023-03-19T03:36:44.051Z,5.60
2023-03-19T03:39:11.825Z,4.60
2023-03-19T03:41:39.293Z,6.10
2023-03-19T03:44:06.889Z,4.90
2023-03-19T03:46:34.495Z,4.10
2023-03-19T03:49:02.228Z,6.60
2023-03-19T03:51:29.577Z,8.00
2023-03-19T03:53:57.010Z,6.10
2023-03-19T03:56:24.379Z,5.20
2023-03-19T03:58:52.374Z,4.70
2023-03-19T04:01:20.279Z,5.10
2023-03-19T04:03:47.619Z,7.10
2023-03-19T04:06:17.959Z,4.40
2023-03-19T04:08:46.035Z,5.70
2023-03-19T04:11:14.413Z,6.60
2023-03-19T04:13:42.294Z,6.90
2023-03-19T04:16:11.173Z,5.60
2023-03-19T04:18:38.889Z,7.50
2023-03-19T04:21:07.038Z,5.00
2023-03-19T04:23:34.799Z,6.30
2023-03-19T04:26:05.352Z,4.40
2023-03-19T04:28:33.010Z,6.00
2023-03-19T04:31:06.976Z,5.00
2023-03-19T04:33:35.674Z,7.00
2023-03-19T04:36:04.328Z,6.20
2023-03-19T04:38:32.081Z,6.20
2023-03-19T04:40:59.720Z,7.70
2023-03-19T04:43:27.579Z,6.70
2023-03-19T04:45:55.100Z,6.30
2023-03-19T04:48:22.586Z,5.60
2023-03-19T04:50:52.456Z,6.60
2023-03-19T04:53:20.816Z,7.50
2023-03-19T04:55:48.282Z,6.50
2023-03-19T04:58:15.717Z,5.50
2023-03-19T05:00:45.199Z,5.30
2023-03-19T05:03:12.875Z,5.40
2023-03-19T05:05:40.269Z,6.30
2023-03-19T05:08:08.935Z,7.30
2023-03-19T05:10:38.046Z,7.80
2023-03-19T05:13:06.871Z,6.10
2023-03-19T05:15:34.439Z,7.80
2023-03-19T05:18:02.025Z,6.60
2023-03-19T05:20:29.759Z,6.60
2023-03-19T05:22:57.328Z,7.20
2023-03-19T05:25:24.754Z,11.60
2023-03-19T05:27:52.145Z,10.20
2023-03-19T05:30:19.595Z,8.60
2023-03-19T05:32:47.182Z,6.60
2023-03-19T05:35:14.638Z,5.80
2023-03-19T05:37:42.118Z,6.40
2023-03-19T05:40:10.678Z,7.20
2023-03-19T05:42:38.465Z,7.50
2023-03-19T05:45:06.289Z,8.40
2023-03-19T05:47:35.096Z,8.70
2023-03-19T05:50:02.773Z,8.60
2023-03-19T05:52:30.291Z,10.80
2023-03-19T05:54:57.949Z,9.60
2023-03-19T05:57:25.515Z,9.30
2023-03-19T05:59:52.928Z,10.70
2023-03-19T06:02:20.478Z,7.80
2023-03-19T06:04:47.884Z,10.60
2023-03-19T06:07:15.306Z,8.90
2023-03-19T06:09:42.720Z,11.70
2023-03-19T06:12:10.327Z,11.40
2023-03-19T06:14:37.672Z,10.60
2023-03-19T06:17:05.077Z,9.00
2023-03-19T06:19:32.462Z,10.40
2023-03-19T06:21:59.899Z,11.90
2023-03-19T06:24:27.242Z,11.70
2023-03-19T06:26:54.585Z,11.10
2023-03-19T06:29:22.073Z,9.40
2023-03-19T06:31:49.398Z,10.60
2023-03-19T06:34:17.194Z,12.90
2023-03-19T06:36:44.983Z,10.30
2023-03-19T06:39:12.830Z,13.00
2023-03-19T06:41:40.576Z,9.40
2023-03-19T06:44:07.979Z,12.20
2023-03-19T06:46:35.349Z,11.90
2023-03-19T06:49:03.018Z,10.20
2023-03-19T06:51:30.639Z,12.50
2023-03-19T06:53:58.011Z,9.50
2023-03-19T06:56:26.127Z,11.40
2023-03-19T06:58:53.535Z,12.30
2023-03-19T07:01:21.997Z,10.10
2023-03-19T07:03:49.507Z,11.90
2023-03-19T07:06:16.932Z,11.50
2023-03-19T07:08:46.528Z,11.50
2023-03-19T07:11:14.834Z,9.30
2023-03-19T07:13:43.050Z,12.10
2023-03-19T07:16:10.564Z,11.00
2023-03-19T07:18:38.548Z,11.10
2023-03-19T07:21:06.119Z,10.40
2023-03-19T07:23:33.584Z,10.40
2023-03-19T07:26:01.060Z,11.00
2023-03-19T07:28:28.498Z,11.90
2023-03-19T07:30:56.339Z,10.30
2023-03-19T07:33:23.857Z,12.30
2023-03-19T07:35:51.239Z,13.70
2023-03-19T07:38:18.602Z,10.50
2023-03-19T07:41:00.962Z,10.10
2023-03-19T07:43:29.857Z,9.60
2023-03-19T07:45:57.533Z,8.90
2023-03-19T07:48:25.010Z,8.60
2023-03-19T07:50:52.954Z,9.50
2023-03-19T07:53:20.669Z,8.90
2023-03-19T07:55:48.745Z,8.60
2023-03-19T07:58:17.031Z,7.70
2023-03-19T08:00:45.225Z,8.50
2023-03-19T08:03:12.658Z,8.40
2023-03-19T08:05:40.169Z,7.80
2023-03-19T08:08:07.569Z,9.00
2023-03-19T08:10:36.571Z,8.50
2023-03-19T08:13:05.428Z,10.80
2023-03-19T08:15:33.474Z,6.10
2023-03-19T08:18:03.770Z,7.20
2023-03-19T08:20:32.542Z,7.30
2023-03-19T08:23:00.380Z,7.70
2023-03-19T08:25:27.792Z,7.80
2023-03-19T08:27:56.290Z,6.20
2023-03-19T08:30:23.773Z,6.40
2023-03-19T08:32:51.236Z,6.30
2023-03-19T08:35:18.892Z,7.80
2023-03-19T08:37:46.369Z,6.90
2023-03-19T08:40:14.112Z,8.20
2023-03-19T08:42:45.068Z,7.70
2023-03-19T08:45:15.560Z,7.00
2023-03-19T08:47:44.011Z,8.70
2023-03-19T08:50:12.257Z,6.40
2023-03-19T08:52:39.867Z,7.20
2023-03-19T08:55:08.480Z,4.60
2023-03-19T08:57:36.587Z,6.90
2023-03-19T09:00:06.008Z,8.40
2023-03-19T09:02:33.768Z,5.10
2023-03-19T09:05:01.115Z,5.70
2023-03-19T09:07:28.533Z,7.30
2023-03-19T09:09:56.178Z,7.40
2023-03-19T09:12:23.614Z,7.20
2023-03-19T09:14:51.845Z,7.60
2023-03-19T09:17:19.366Z,7.20
2023-03-19T09:19:46.790Z,6.70
2023-03-19T09:22:14.177Z,5.80
2023-03-19T09:24:41.774Z,8.00
2023-03-19T09:27:09.187Z,8.70
2023-03-19T09:29:36.642Z,8.30
2023-03-19T09:32:04.485Z,9.30
2023-03-19T09:34:31.869Z,4.50
2023-03-19T09:36:59.266Z,5.30
2023-03-19T09:39:26.734Z,5.10
2023-03-19T09:42:40.540Z,6.00
2023-03-19T09:45:15.473Z,5.60
2023-03-19T09:47:45.423Z,9.90
2023-03-19T09:50:18.222Z,5.20
2023-03-19T09:52:50.434Z,5.90
2023-03-19T09:55:33.590Z,4.40
2023-03-19T09:58:02.310Z,6.40
2023-03-19T10:00:37.497Z,4.60
2023-03-19T10:03:34.679Z,5.30
2023-03-19T10:06:24.533Z,5.10
2023-03-19T10:09:31.822Z,6.10
2023-03-19T10:12:27.752Z,6.00
2023-03-19T10:15:22.506Z,6.00
2023-03-19T10:18:13.590Z,6.10
2023-03-19T10:20:58.870Z,7.50
2023-03-19T10:23:33.832Z,4.50
2023-03-19T10:26:05.550Z,5.50
2023-03-19T10:28:33.034Z,5.00
2023-03-19T10:31:26.318Z,5.60
2023-03-19T10:34:13.579Z,4.60
2023-03-19T10:36:41.224Z,7.10
2023-03-19T10:39:09.122Z,5.20
2023-03-19T10:42:01.253Z,5.60
2023-03-19T10:44:31.818Z,5.30
2023-03-19T10:47:00.529Z,5.70
2023-03-19T10:49:28.126Z,5.10
2023-03-19T10:51:58.438Z,6.40
2023-03-19T10:54:30.809Z,8.40
2023-03-19T10:57:01.330Z,7.90
2023-03-19T10:59:37.247Z,8.70
2023-03-19T11:02:32.388Z,8.30
2023-03-19T11:05:29.895Z,8.00
2023-03-19T11:08:34.618Z,7.50
2023-03-19T11:11:03.426Z,8.10
2023-03-19T11:13:34.286Z,8.20
2023-03-19T11:16:01.829Z,8.20
2023-03-19T11:18:37.236Z,7.00
2023-03-19T11:21:22.784Z,6.20
2023-03-19T11:24:01.423Z,5.50
2023-03-19T11:26:29.134Z,5.00
2023-03-19T11:29:03.841Z,4.10
2023-03-19T11:31:37.660Z,4.00
2023-03-19T11:34:39.326Z,4.00
2023-03-19T11:40:25.188Z,4.40
2023-03-19T11:43:32.699Z,4.10
2023-03-19T11:46:24.483Z,5.50
2023-03-19T11:49:10.606Z,5.00
2023-03-19T11:51:57.084Z,5.60
2023-03-19T11:54:56.914Z,4.50
2023-03-19T11:57:36.935Z,4.20
2023-03-19T12:00:20.935Z,4.60
2023-03-19T12:03:22.297Z,6.00
2023-03-19T12:05:59.338Z,4.70
2023-03-19T12:08:38.171Z,4.20
2023-03-19T12:11:24.997Z,4.40
2023-03-19T12:14:13.853Z,4.60
2023-03-19T12:17:03.821Z,5.30
2023-03-19T12:19:56.193Z,4.70
2023-03-19T12:23:07.799Z,14.50
2023-03-19T12:26:04.917Z,7.50
2023-03-19T12:28:59.932Z,6.20
2023-03-19T12:31:42.552Z,5.20
2023-03-19T12:34:29.779Z,4.70
2023-03-19T12:37:32.525Z,4.90
2023-03-19T12:40:20.189Z,4.10
2023-03-19T12:42:47.769Z,4.40
2023-03-19T12:45:29.307Z,3.80
2023-03-19T12:48:27.616Z,4.00
2023-03-19T12:51:02.106Z,6.00
2023-03-19T12:53:49.568Z,4.80
2023-03-19T12:56:46.951Z,4.20
2023-03-19T12:59:30.958Z,3.30
2023-03-19T13:02:21.019Z,3.30
2023-03-19T13:04:57.626Z,3.20
2023-03-19T13:07:40.273Z,3.80
2023-03-19T13:10:18.182Z,4.50
2023-03-19T13:12:48.268Z,2.70
2023-03-19T13:15:31.966Z,5.20
2023-03-19T13:18:37.052Z,5.00
2023-03-19T13:21:25.969Z,4.50
2023-03-19T13:24:26.070Z,3.80
2023-03-19T13:26:55.356Z,3.90
2023-03-19T13:29:31.440Z,6.40
2023-03-19T13:32:22.722Z,3.40
2023-03-19T13:34:50.201Z,5.10
2023-03-19T13:37:20.774Z,4.30
2023-03-19T13:39:49.433Z,3.80
2023-03-19T13:42:42.696Z,3.70
2023-03-19T13:45:34.667Z,3.40
2023-03-19T13:48:36.623Z,6.80
2023-03-19T13:51:27.336Z,3.70
2023-03-19T13:54:00.392Z,4.40
2023-03-19T13:56:30.606Z,7.10
2023-03-19T13:59:16.647Z,6.00
2023-03-19T14:01:45.249Z,5.50
2023-03-19T14:04:33.185Z,3.90
2023-03-19T14:07:17.908Z,4.60
2023-03-19T14:09:49.655Z,2.80
2023-03-19T14:12:23.121Z,3.60
2023-03-19T14:15:00.341Z,4.60
2023-03-19T14:17:34.779Z,4.20
2023-03-19T14:20:12.528Z,4.40
2023-03-19T14:23:06.475Z,4.00
2023-03-19T14:26:06.592Z,6.30
2023-03-19T14:28:53.399Z,4.20
2023-03-19T14:31:38.846Z,4.00
2023-03-19T14:34:12.007Z,5.50
2023-03-19T14:36:49.553Z,5.50
2023-03-19T14:39:27.655Z,5.00
2023-03-19T14:42:03.637Z,5.80
2023-03-19T14:44:58.871Z,5.90
2023-03-19T14:47:35.276Z,6.00
2023-03-19T14:50:51.934Z,4.60
2023-03-19T14:53:36.032Z,6.70
2023-03-19T14:56:19.287Z,4.40
2023-03-19T14:59:07.693Z,4.70
2023-03-19T15:01:41.595Z,4.00
2023-03-19T15:04:13.102Z,4.60
2023-03-19T15:06:44.169Z,2.30
2023-03-19T15:09:21.079Z,7.40
2023-03-19T15:12:34.529Z,4.00
2023-03-19T15:15:24.733Z,5.70
2023-03-19T15:18:04.708Z,6.70
2023-03-19T15:20:58.979Z,5.20
2023-03-19T15:23:28.794Z,4.10
2023-03-19T15:26:04.411Z,3.90
2023-03-19T15:28:44.727Z,4.70
2023-03-19T15:33:59.004Z,6.30
2023-03-19T15:36:32.920Z,5.50
2023-03-19T15:39:05.554Z,3.90
2023-03-19T15:41:40.569Z,4.10
2023-03-19T15:44:15.629Z,5.40
2023-03-19T15:46:44.779Z,4.30
2023-03-19T15:49:21.951Z,4.40
2023-03-19T15:51:53.569Z,4.50
2023-03-19T15:54:22.083Z,5.10
2023-03-19T15:56:51.407Z,7.40
2023-03-19T15:59:22.241Z,6.00
2023-03-19T16:01:51.092Z,5.40
2023-03-19T16:04:27.564Z,5.30
2023-03-19T16:06:56.843Z,4.10
2023-03-19T16:09:33.645Z,3.80
2023-03-19T16:12:01.669Z,5.20
2023-03-19T16:14:41.504Z,5.00
2023-03-19T16:17:14.408Z,5.60
2023-03-19T16:19:58.907Z,3.90
2023-03-19T16:22:32.095Z,4.10
2023-03-19T16:25:01.954Z,3.50
2023-03-19T16:27:37.300Z,3.80
2023-03-19T16:30:20.500Z,3.30
2023-03-19T16:33:04.566Z,4.40
2023-03-19T16:35:35.032Z,3.70
2023-03-19T16:38:18.239Z,3.60
2023-03-19T16:40:48.844Z,5.40
2023-03-19T16:43:36.838Z,2.30
2023-03-19T16:46:12.498Z,5.00
2023-03-19T16:48:40.261Z,3.30
2023-03-19T16:51:18.574Z,3.00
2023-03-19T16:53:48.148Z,3.60
2023-03-19T16:56:16.620Z,4.60
2023-03-19T16:58:45.402Z,3.20
2023-03-19T17:01:19.420Z,3.40
2023-03-19T17:03:47.323Z,4.00
2023-03-19T17:06:15.925Z,5.00
2023-03-19T17:08:44.512Z,3.30
2023-03-19T17:11:25.471Z,4.30
2023-03-19T17:13:54.400Z,4.90
2023-03-19T17:16:22.053Z,5.60
2023-03-19T17:18:49.630Z,3.50
2023-03-19T17:21:33.320Z,3.20
2023-03-19T17:24:23.222Z,5.10
2023-03-19T17:26:51.785Z,4.00
2023-03-19T17:29:20.923Z,4.40
2023-03-19T17:31:48.704Z,3.70
2023-03-19T17:34:25.671Z,4.50
2023-03-19T17:37:00.356Z,3.30
2023-03-19T17:39:32.153Z,4.80
2023-03-19T17:41:59.645Z,4.30
2023-03-19T17:44:27.973Z,5.60
2023-03-19T17:46:56.637Z,4.40
2023-03-19T17:49:28.983Z,4.20
2023-03-19T17:51:57.093Z,4.00
2023-03-19T17:54:26.842Z,5.00
2023-03-19T17:56:55.883Z,5.70
2023-03-19T17:59:24.039Z,4.10
2023-03-19T18:01:52.135Z,3.80
2023-03-19T18:04:21.713Z,4.60
2023-03-19T18:06:54.287Z,5.20
2023-03-19T18:09:26.122Z,6.20
2023-03-19T18:11:53.817Z,5.10
2023-03-19T18:14:21.284Z,3.60
2023-03-19T18:16:48.751Z,4.10
2023-03-19T18:19:23.756Z,5.30
2023-03-19T18:21:51.356Z,4.80
2023-03-19T18:24:18.769Z,4.60
2023-03-19T18:26:46.200Z,6.00
2023-03-19T18:29:13.602Z,4.70
2023-03-19T18:31:44.455Z,5.50
2023-03-19T18:34:14.779Z,5.40
2023-03-19T18:36:42.804Z,6.00
2023-03-19T18:39:14.960Z,5.70
2023-03-19T18:41:43.030Z,5.90
2023-03-19T18:44:12.280Z,5.70
2023-03-19T18:46:41.062Z,4.40
2023-03-19T18:49:25.531Z,6.10
2023-03-19T18:52:02.694Z,6.80
2023-03-19T18:54:32.182Z,5.90
2023-03-19T18:57:01.116Z,4.60
2023-03-19T18:59:32.668Z,5.00
2023-03-19T19:02:32.364Z,7.30
2023-03-19T19:05:00.782Z,6.40
2023-03-19T19:07:28.291Z,5.20
2023-03-19T19:09:55.660Z,8.60
2023-03-19T19:12:23.392Z,7.20
2023-03-19T19:14:50.822Z,5.00
2023-03-19T19:17:21.579Z,6.30
2023-03-19T19:19:48.984Z,6.80
2023-03-19T19:22:18.350Z,8.70
2023-03-19T19:24:45.959Z,6.90
2023-03-19T19:27:22.607Z,5.30
2023-03-19T19:29:50.629Z,5.00
2023-03-19T19:32:30.834Z,7.80
2023-03-19T19:34:58.264Z,5.50
2023-03-19T19:37:25.715Z,5.40
2023-03-19T19:39:53.200Z,5.90
2023-03-19T19:42:22.800Z,5.60
2023-03-19T19:44:58.751Z,6.00
2023-03-19T19:47:27.042Z,5.10
2023-03-19T19:49:54.384Z,5.20
2023-03-19T19:52:22.036Z,4.40
2023-03-19T19:54:51.681Z,6.10
2023-03-19T19:57:24.517Z,8.20
2023-03-19T19:59:54.152Z,4.10
2023-03-19T20:02:25.427Z,8.60
2023-03-19T20:04:52.786Z,6.30
2023-03-19T20:07:20.608Z,7.40
2023-03-19T20:09:48.867Z,4.60
2023-03-19T20:12:29.740Z,6.00
2023-03-19T20:14:57.891Z,4.10
2023-03-19T20:17:25.531Z,8.00
2023-03-19T20:19:53.025Z,4.40
2023-03-19T20:22:20.376Z,5.70
2023-03-19T20:24:50.937Z,5.00
2023-03-19T20:27:28.054Z,4.90
2023-03-19T20:29:55.676Z,7.20
2023-03-19T20:32:27.542Z,5.30
2023-03-19T20:34:55.009Z,5.60
2023-03-19T20:37:22.338Z,6.60
2023-03-19T20:39:49.682Z,7.20
2023-03-19T20:42:17.510Z,4.70
2023-03-19T20:44:45.784Z,6.10
2023-03-19T20:47:20.645Z,5.70
2023-03-19T20:49:48.738Z,5.70
2023-03-19T20:52:16.590Z,4.70
2023-03-19T20:54:44.745Z,5.60
2023-03-19T20:57:29.254Z,5.10
2023-03-19T20:59:58.315Z,5.80
2023-03-19T21:02:26.974Z,7.00
2023-03-19T21:04:54.367Z,5.00
2023-03-19T21:07:35.387Z,6.30
2023-03-19T21:10:39.377Z,7.90
2023-03-19T21:13:07.258Z,4.80
2023-03-19T21:15:34.870Z,7.50
2023-03-19T21:18:02.318Z,6.30
2023-03-19T21:20:31.978Z,5.20
2023-03-19T21:23:20.518Z,5.90
2023-03-19T21:25:48.298Z,4.50
2023-03-19T21:28:42.318Z,8.20
2023-03-19T21:31:19.051Z,7.50
2023-03-19T21:33:49.330Z,7.10
2023-03-19T21:36:17.519Z,7.90
2023-03-19T21:38:45.435Z,10.50
2023-03-19T21:41:24.752Z,5.80
2023-03-19T21:43:58.119Z,8.00
2023-03-19T21:46:28.951Z,6.90
2023-03-19T21:48:58.538Z,4.90
2023-03-19T21:51:28.716Z,6.50
2023-03-19T21:53:56.221Z,8.60
2023-03-19T21:56:33.262Z,5.00
2023-03-19T21:59:04.442Z,6.90
2023-03-19T22:01:32.171Z,6.80
2023-03-19T22:03:59.656Z,7.30
2023-03-19T22:06:28.015Z,7.30
2023-03-19T22:08:55.540Z,6.90
2023-03-19T22:11:32.292Z,6.70
2023-03-19T22:14:09.729Z,7.40
2023-03-19T22:16:37.160Z,6.50
2023-03-19T22:19:04.728Z,7.00
2023-03-19T22:21:33.034Z,8.30
2023-03-19T22:24:00.561Z,8.90
2023-03-19T22:26:41.300Z,9.40
2023-03-19T22:29:21.007Z,8.50
2023-03-19T22:31:49.858Z,10.00
2023-03-19T22:34:21.611Z,7.90
2023-03-19T22:36:49.620Z,7.90
2023-03-19T22:39:17.235Z,7.80
2023-03-19T22:41:47.984Z,6.10
2023-03-19T22:44:30.711Z,10.40
2023-03-19T22:47:01.029Z,7.10
2023-03-19T22:49:29.792Z,7.60
2023-03-19T22:51:58.365Z,7.80
2023-03-19T22:54:26.154Z,9.80
2023-03-19T22:56:53.532Z,9.20
2023-03-19T22:59:20.982Z,13.20
2023-03-19T23:01:48.870Z,9.70
2023-03-19T23:04:30.752Z,12.20
2023-03-19T23:07:00.564Z,11.50
2023-03-19T23:09:32.170Z,10.80
2023-03-19T23:12:01.015Z,11.40
2023-03-19T23:14:31.010Z,8.90
2023-03-19T23:17:07.400Z,9.30
2023-03-19T23:19:37.482Z,9.40
2023-03-19T23:22:07.561Z,9.20
2023-03-19T23:24:35.094Z,12.50
2023-03-19T23:27:03.596Z,12.60
2023-03-19T23:29:43.672Z,11.60
2023-03-19T23:32:11.556Z,13.10
2023-03-19T23:34:54.083Z,10.10
2023-03-19T23:37:25.364Z,12.30
2023-03-19T23:39:53.727Z,10.00
2023-03-19T23:42:31.818Z,10.20
2023-03-19T23:45:03.716Z,12.60
2023-03-19T23:47:31.411Z,9.70
2023-03-19T23:49:59.308Z,10.50
2023-03-19T23:52:26.828Z,14.40
2023-03-19T23:54:54.235Z,12.70
2023-03-19T23:57:23.698Z,9.20
2023-03-19T23:59:52.402Z,12.00
